sensor_id;sensor_type;location;lat;lon;timestamp;P1;durP1;ratioP1;P2;durP2;ratioP2
71771;SDS011;59606;52.138;5.424;2022-10-16T00:00:53;5.43;;;1.50;;
71771;SDS011;59606;52.138;5.424;2022-10-16T00:03:19;4.82;;;1.30;;
71771;SDS011;59606;52.138;5.424;2022-10-16T00:05:46;4.22;;;1.10;;
71771;SDS011;59606;52.138;5.424;2022-10-16T00:08:13;5.85;;;1.48;;
71771;SDS011;59606;52.138;5.424;2022-10-16T00:10:40;3.23;;;1.30;;
71771;SDS011;59606;52.138;5.424;2022-10-16T00:13:06;3.45;;;1.20;;
71771;SDS011;59606;52.138;5.424;2022-10-16T00:15:34;6.18;;;1.13;;
71771;SDS011;59606;52.138;5.424;2022-10-16T00:18:06;4.55;;;1.20;;
71771;SDS011;59606;52.138;5.424;2022-10-16T00:20:35;4.45;;;1.42;;
71771;SDS011;59606;52.138;5.424;2022-10-16T00:23:03;4.23;;;1.60;;
71771;SDS011;59606;52.138;5.424;2022-10-16T00:25:31;7.78;;;1.80;;
71771;SDS011;59606;52.138;5.424;2022-10-16T00:27:59;2.53;;;1.15;;
71771;SDS011;59606;52.138;5.424;2022-10-16T00:30:26;2.95;;;1.50;;
71771;SDS011;59606;52.138;5.424;2022-10-16T00:32:54;7.63;;;1.70;;
71771;SDS011;59606;52.138;5.424;2022-10-16T00:35:21;5.90;;;1.70;;
71771;SDS011;59606;52.138;5.424;2022-10-16T00:37:47;2.65;;;1.40;;
71771;SDS011;59606;52.138;5.424;2022-10-16T00:40:14;4.95;;;1.67;;
71771;SDS011;59606;52.138;5.424;2022-10-16T00:42:40;6.38;;;1.63;;
71771;SDS011;59606;52.138;5.424;2022-10-16T00:45:08;4.38;;;1.70;;
71771;SDS011;59606;52.138;5.424;2022-10-16T00:47:42;6.60;;;1.70;;
71771;SDS011;59606;52.138;5.424;2022-10-16T00:50:19;4.78;;;1.50;;
71771;SDS011;59606;52.138;5.424;2022-10-16T00:52:50;6.28;;;1.20;;
71771;SDS011;59606;52.138;5.424;2022-10-16T00:55:17;4.40;;;1.42;;
71771;SDS011;59606;52.138;5.424;2022-10-16T00:57:46;7.32;;;1.75;;
71771;SDS011;59606;52.138;5.424;2022-10-16T01:00:15;8.30;;;1.90;;
71771;SDS011;59606;52.138;5.424;2022-10-16T01:02:44;7.18;;;1.92;;
71771;SDS011;59606;52.138;5.424;2022-10-16T01:05:11;6.20;;;2.08;;
71771;SDS011;59606;52.138;5.424;2022-10-16T01:07:53;6.80;;;2.30;;
71771;SDS011;59606;52.138;5.424;2022-10-16T01:10:35;7.28;;;2.35;;
71771;SDS011;59606;52.138;5.424;2022-10-16T01:13:10;6.00;;;1.97;;
71771;SDS011;59606;52.138;5.424;2022-10-16T01:15:41;6.20;;;2.70;;
71771;SDS011;59606;52.138;5.424;2022-10-16T01:18:31;5.22;;;2.42;;
71771;SDS011;59606;52.138;5.424;2022-10-16T01:21:04;7.20;;;2.35;;
71771;SDS011;59606;52.138;5.424;2022-10-16T01:35:15;6.10;;;2.60;;
71771;SDS011;59606;52.138;5.424;2022-10-16T01:38:07;7.75;;;3.25;;
71771;SDS011;59606;52.138;5.424;2022-10-16T01:40:39;8.23;;;2.83;;
71771;SDS011;59606;52.138;5.424;2022-10-16T01:43:20;10.43;;;3.20;;
71771;SDS011;59606;52.138;5.424;2022-10-16T01:45:52;8.18;;;2.67;;
71771;SDS011;59606;52.138;5.424;2022-10-16T01:48:19;9.63;;;2.67;;
71771;SDS011;59606;52.138;5.424;2022-10-16T01:50:50;7.18;;;3.15;;
71771;SDS011;59606;52.138;5.424;2022-10-16T01:53:21;8.33;;;2.87;;
71771;SDS011;59606;52.138;5.424;2022-10-16T01:55:49;8.80;;;3.80;;
71771;SDS011;59606;52.138;5.424;2022-10-16T01:58:18;6.40;;;3.30;;
71771;SDS011;59606;52.138;5.424;2022-10-16T02:00:45;9.05;;;3.42;;
71771;SDS011;59606;52.138;5.424;2022-10-16T02:03:14;8.13;;;2.67;;
71771;SDS011;59606;52.138;5.424;2022-10-16T02:05:49;7.20;;;2.57;;
71771;SDS011;59606;52.138;5.424;2022-10-16T02:08:19;5.47;;;3.00;;
71771;SDS011;59606;52.138;5.424;2022-10-16T02:10:48;5.43;;;2.45;;
71771;SDS011;59606;52.138;5.424;2022-10-16T02:13:23;7.38;;;2.70;;
71771;SDS011;59606;52.138;5.424;2022-10-16T02:15:54;5.68;;;2.50;;
71771;SDS011;59606;52.138;5.424;2022-10-16T02:18:20;5.97;;;2.17;;
71771;SDS011;59606;52.138;5.424;2022-10-16T02:20:51;3.72;;;2.00;;
71771;SDS011;59606;52.138;5.424;2022-10-16T02:26:03;4.63;;;2.08;;
71771;SDS011;59606;52.138;5.424;2022-10-16T02:28:40;4.25;;;1.80;;
71771;SDS011;59606;52.138;5.424;2022-10-16T02:31:11;5.73;;;1.83;;
71771;SDS011;59606;52.138;5.424;2022-10-16T02:33:42;5.28;;;2.25;;
71771;SDS011;59606;52.138;5.424;2022-10-16T02:36:10;5.68;;;1.95;;
71771;SDS011;59606;52.138;5.424;2022-10-16T02:38:37;5.20;;;2.10;;
71771;SDS011;59606;52.138;5.424;2022-10-16T02:41:05;5.97;;;2.30;;
71771;SDS011;59606;52.138;5.424;2022-10-16T02:43:32;6.60;;;2.27;;
71771;SDS011;59606;52.138;5.424;2022-10-16T02:45:59;7.03;;;2.25;;
71771;SDS011;59606;52.138;5.424;2022-10-16T02:48:26;4.72;;;1.98;;
71771;SDS011;59606;52.138;5.424;2022-10-16T02:50:52;4.35;;;1.90;;
71771;SDS011;59606;52.138;5.424;2022-10-16T02:53:19;7.38;;;2.25;;
71771;SDS011;59606;52.138;5.424;2022-10-16T02:55:45;8.40;;;2.13;;
71771;SDS011;59606;52.138;5.424;2022-10-16T02:58:12;6.07;;;2.00;;
71771;SDS011;59606;52.138;5.424;2022-10-16T03:00:38;6.85;;;2.45;;
71771;SDS011;59606;52.138;5.424;2022-10-16T03:03:05;5.72;;;2.38;;
71771;SDS011;59606;52.138;5.424;2022-10-16T03:05:32;4.70;;;2.05;;
71771;SDS011;59606;52.138;5.424;2022-10-16T03:07:58;4.37;;;1.83;;
71771;SDS011;59606;52.138;5.424;2022-10-16T03:10:26;4.85;;;2.40;;
71771;SDS011;59606;52.138;5.424;2022-10-16T03:12:53;5.82;;;2.33;;
71771;SDS011;59606;52.138;5.424;2022-10-16T03:15:20;5.40;;;2.17;;
71771;SDS011;59606;52.138;5.424;2022-10-16T03:17:46;5.43;;;2.30;;
71771;SDS011;59606;52.138;5.424;2022-10-16T03:20:13;4.17;;;2.13;;
71771;SDS011;59606;52.138;5.424;2022-10-16T03:22:39;5.70;;;2.45;;
71771;SDS011;59606;52.138;5.424;2022-10-16T03:25:06;5.72;;;2.72;;
71771;SDS011;59606;52.138;5.424;2022-10-16T03:27:33;5.15;;;1.92;;
71771;SDS011;59606;52.138;5.424;2022-10-16T03:29:59;4.15;;;1.88;;
71771;SDS011;59606;52.138;5.424;2022-10-16T03:32:26;6.97;;;2.47;;
71771;SDS011;59606;52.138;5.424;2022-10-16T03:34:54;6.20;;;1.77;;
71771;SDS011;59606;52.138;5.424;2022-10-16T03:37:22;5.85;;;1.95;;
71771;SDS011;59606;52.138;5.424;2022-10-16T03:39:50;5.97;;;1.92;;
71771;SDS011;59606;52.138;5.424;2022-10-16T03:42:16;2.55;;;1.38;;
71771;SDS011;59606;52.138;5.424;2022-10-16T03:44:43;3.40;;;1.47;;
71771;SDS011;59606;52.138;5.424;2022-10-16T03:47:09;4.72;;;1.70;;
71771;SDS011;59606;52.138;5.424;2022-10-16T03:49:36;6.78;;;1.85;;
71771;SDS011;59606;52.138;5.424;2022-10-16T03:52:02;4.72;;;2.08;;
71771;SDS011;59606;52.138;5.424;2022-10-16T03:54:28;4.47;;;2.53;;
71771;SDS011;59606;52.138;5.424;2022-10-16T03:56:55;6.83;;;2.20;;
71771;SDS011;59606;52.138;5.424;2022-10-16T03:59:21;9.10;;;1.98;;
71771;SDS011;59606;52.138;5.424;2022-10-16T04:01:48;5.28;;;2.17;;
71771;SDS011;59606;52.138;5.424;2022-10-16T04:04:14;4.65;;;1.67;;
71771;SDS011;59606;52.138;5.424;2022-10-16T04:06:41;4.13;;;1.98;;
71771;SDS011;59606;52.138;5.424;2022-10-16T04:09:07;5.37;;;2.40;;
71771;SDS011;59606;52.138;5.424;2022-10-16T04:11:33;4.13;;;1.73;;
71771;SDS011;59606;52.138;5.424;2022-10-16T04:14:00;4.35;;;1.80;;
71771;SDS011;59606;52.138;5.424;2022-10-16T04:16:26;4.40;;;1.88;;
71771;SDS011;59606;52.138;5.424;2022-10-16T04:18:53;5.40;;;2.53;;
71771;SDS011;59606;52.138;5.424;2022-10-16T04:21:19;6.67;;;1.83;;
71771;SDS011;59606;52.138;5.424;2022-10-16T04:23:46;3.65;;;1.70;;
71771;SDS011;59606;52.138;5.424;2022-10-16T04:26:12;7.07;;;1.88;;
71771;SDS011;59606;52.138;5.424;2022-10-16T04:28:38;5.03;;;1.83;;
71771;SDS011;59606;52.138;5.424;2022-10-16T04:31:05;4.00;;;1.70;;
71771;SDS011;59606;52.138;5.424;2022-10-16T04:33:33;6.30;;;1.60;;
71771;SDS011;59606;52.138;5.424;2022-10-16T04:36:00;5.85;;;1.38;;
71771;SDS011;59606;52.138;5.424;2022-10-16T04:38:28;3.95;;;1.90;;
71771;SDS011;59606;52.138;5.424;2022-10-16T04:40:54;4.78;;;1.50;;
71771;SDS011;59606;52.138;5.424;2022-10-16T04:43:21;3.85;;;1.63;;
71771;SDS011;59606;52.138;5.424;2022-10-16T04:45:47;5.77;;;1.50;;
71771;SDS011;59606;52.138;5.424;2022-10-16T04:48:16;3.03;;;1.10;;
71771;SDS011;59606;52.138;5.424;2022-10-16T04:50:44;2.53;;;1.52;;
71771;SDS011;59606;52.138;5.424;2022-10-16T04:53:10;4.80;;;1.48;;
71771;SDS011;59606;52.138;5.424;2022-10-16T04:55:37;4.93;;;1.50;;
71771;SDS011;59606;52.138;5.424;2022-10-16T04:58:04;3.37;;;1.20;;
71771;SDS011;59606;52.138;5.424;2022-10-16T05:00:30;4.72;;;1.20;;
71771;SDS011;59606;52.138;5.424;2022-10-16T05:02:57;4.68;;;1.50;;
71771;SDS011;59606;52.138;5.424;2022-10-16T05:05:25;5.53;;;1.45;;
71771;SDS011;59606;52.138;5.424;2022-10-16T05:07:53;5.55;;;1.38;;
71771;SDS011;59606;52.138;5.424;2022-10-16T05:10:20;3.27;;;1.30;;
71771;SDS011;59606;52.138;5.424;2022-10-16T05:12:46;4.88;;;1.60;;
71771;SDS011;59606;52.138;5.424;2022-10-16T05:15:13;5.13;;;1.40;;
71771;SDS011;59606;52.138;5.424;2022-10-16T05:17:39;4.85;;;1.70;;
71771;SDS011;59606;52.138;5.424;2022-10-16T05:20:09;3.13;;;1.20;;
71771;SDS011;59606;52.138;5.424;2022-10-16T05:22:37;1.97;;;1.07;;
71771;SDS011;59606;52.138;5.424;2022-10-16T05:25:04;5.93;;;1.30;;
71771;SDS011;59606;52.138;5.424;2022-10-16T05:27:30;3.75;;;1.42;;
71771;SDS011;59606;52.138;5.424;2022-10-16T05:29:57;5.50;;;1.55;;
71771;SDS011;59606;52.138;5.424;2022-10-16T05:32:23;4.07;;;1.27;;
71771;SDS011;59606;52.138;5.424;2022-10-16T05:34:50;5.47;;;1.47;;
71771;SDS011;59606;52.138;5.424;2022-10-16T05:37:16;2.40;;;1.40;;
71771;SDS011;59606;52.138;5.424;2022-10-16T05:39:43;3.55;;;1.30;;
71771;SDS011;59606;52.138;5.424;2022-10-16T05:42:09;3.28;;;1.25;;
71771;SDS011;59606;52.138;5.424;2022-10-16T05:44:36;3.72;;;1.63;;
71771;SDS011;59606;52.138;5.424;2022-10-16T05:47:02;3.60;;;1.20;;
71771;SDS011;59606;52.138;5.424;2022-10-16T05:49:29;3.92;;;1.45;;
71771;SDS011;59606;52.138;5.424;2022-10-16T05:51:56;5.43;;;1.48;;
71771;SDS011;59606;52.138;5.424;2022-10-16T05:54:22;5.80;;;1.65;;
71771;SDS011;59606;52.138;5.424;2022-10-16T05:56:49;5.85;;;1.77;;
71771;SDS011;59606;52.138;5.424;2022-10-16T05:59:15;3.93;;;1.50;;
71771;SDS011;59606;52.138;5.424;2022-10-16T06:01:42;2.92;;;1.35;;
71771;SDS011;59606;52.138;5.424;2022-10-16T06:04:08;4.00;;;1.58;;
71771;SDS011;59606;52.138;5.424;2022-10-16T06:06:36;3.17;;;1.40;;
71771;SDS011;59606;52.138;5.424;2022-10-16T06:09:03;5.93;;;2.10;;
71771;SDS011;59606;52.138;5.424;2022-10-16T06:11:30;3.40;;;1.53;;
71771;SDS011;59606;52.138;5.424;2022-10-16T06:13:59;6.82;;;1.73;;
71771;SDS011;59606;52.138;5.424;2022-10-16T06:16:28;3.20;;;1.30;;
71771;SDS011;59606;52.138;5.424;2022-10-16T06:18:55;3.45;;;1.30;;
71771;SDS011;59606;52.138;5.424;2022-10-16T06:21:23;3.83;;;1.55;;
71771;SDS011;59606;52.138;5.424;2022-10-16T06:23:51;3.43;;;1.67;;
71771;SDS011;59606;52.138;5.424;2022-10-16T06:26:19;3.50;;;1.45;;
71771;SDS011;59606;52.138;5.424;2022-10-16T06:28:47;2.20;;;1.38;;
71771;SDS011;59606;52.138;5.424;2022-10-16T06:31:15;7.10;;;1.52;;
71771;SDS011;59606;52.138;5.424;2022-10-16T06:33:42;4.10;;;1.83;;
71771;SDS011;59606;52.138;5.424;2022-10-16T06:36:10;4.23;;;1.50;;
71771;SDS011;59606;52.138;5.424;2022-10-16T06:38:40;3.03;;;1.50;;
71771;SDS011;59606;52.138;5.424;2022-10-16T06:41:08;2.72;;;1.30;;
71771;SDS011;59606;52.138;5.424;2022-10-16T06:43:39;3.58;;;1.85;;
71771;SDS011;59606;52.138;5.424;2022-10-16T06:46:07;4.10;;;1.45;;
71771;SDS011;59606;52.138;5.424;2022-10-16T06:48:36;4.33;;;1.40;;
71771;SDS011;59606;52.138;5.424;2022-10-16T06:51:04;5.28;;;1.60;;
71771;SDS011;59606;52.138;5.424;2022-10-16T06:53:33;7.40;;;1.63;;
71771;SDS011;59606;52.138;5.424;2022-10-16T06:56:10;4.10;;;1.63;;
71771;SDS011;59606;52.138;5.424;2022-10-16T06:58:37;5.57;;;1.67;;
71771;SDS011;59606;52.138;5.424;2022-10-16T07:01:05;4.47;;;1.57;;
71771;SDS011;59606;52.138;5.424;2022-10-16T07:03:31;4.57;;;2.00;;
71771;SDS011;59606;52.138;5.424;2022-10-16T07:06:02;3.50;;;1.60;;
71771;SDS011;59606;52.138;5.424;2022-10-16T07:08:30;3.38;;;1.77;;
71771;SDS011;59606;52.138;5.424;2022-10-16T07:10:59;4.68;;;2.28;;
71771;SDS011;59606;52.138;5.424;2022-10-16T07:13:26;3.80;;;1.50;;
71771;SDS011;59606;52.138;5.424;2022-10-16T07:15:53;4.85;;;1.73;;
71771;SDS011;59606;52.138;5.424;2022-10-16T07:18:19;6.25;;;1.38;;
71771;SDS011;59606;52.138;5.424;2022-10-16T07:20:46;6.22;;;1.70;;
71771;SDS011;59606;52.138;5.424;2022-10-16T07:23:13;3.30;;;1.50;;
71771;SDS011;59606;52.138;5.424;2022-10-16T07:25:39;4.20;;;1.30;;
71771;SDS011;59606;52.138;5.424;2022-10-16T07:28:05;2.30;;;1.23;;
71771;SDS011;59606;52.138;5.424;2022-10-16T07:30:34;6.22;;;1.45;;
71771;SDS011;59606;52.138;5.424;2022-10-16T07:33:02;3.00;;;1.08;;
71771;SDS011;59606;52.138;5.424;2022-10-16T07:35:28;3.42;;;1.58;;
71771;SDS011;59606;52.138;5.424;2022-10-16T07:37:55;2.80;;;1.40;;
71771;SDS011;59606;52.138;5.424;2022-10-16T07:40:21;2.92;;;1.23;;
71771;SDS011;59606;52.138;5.424;2022-10-16T07:42:48;4.32;;;1.05;;
71771;SDS011;59606;52.138;5.424;2022-10-16T07:45:14;2.45;;;0.90;;
71771;SDS011;59606;52.138;5.424;2022-10-16T07:47:41;8.05;;;1.92;;
71771;SDS011;59606;52.138;5.424;2022-10-16T07:50:07;3.37;;;0.83;;
71771;SDS011;59606;52.138;5.424;2022-10-16T07:52:34;8.40;;;1.30;;
71771;SDS011;59606;52.138;5.424;2022-10-16T07:55:00;4.68;;;1.27;;
71771;SDS011;59606;52.138;5.424;2022-10-16T07:57:27;3.45;;;0.90;;
71771;SDS011;59606;52.138;5.424;2022-10-16T07:59:54;7.60;;;2.55;;
71771;SDS011;59606;52.138;5.424;2022-10-16T08:02:21;6.47;;;1.80;;
71771;SDS011;59606;52.138;5.424;2022-10-16T08:04:47;6.65;;;1.38;;
71771;SDS011;59606;52.138;5.424;2022-10-16T08:07:14;8.02;;;2.03;;
71771;SDS011;59606;52.138;5.424;2022-10-16T08:09:40;7.75;;;1.88;;
71771;SDS011;59606;52.138;5.424;2022-10-16T08:12:07;3.70;;;1.50;;
71771;SDS011;59606;52.138;5.424;2022-10-16T08:14:33;4.80;;;1.40;;
71771;SDS011;59606;52.138;5.424;2022-10-16T08:17:00;3.40;;;1.38;;
71771;SDS011;59606;52.138;5.424;2022-10-16T08:19:28;5.03;;;1.80;;
71771;SDS011;59606;52.138;5.424;2022-10-16T08:21:54;5.47;;;1.52;;
71771;SDS011;59606;52.138;5.424;2022-10-16T08:24:21;6.78;;;1.70;;
71771;SDS011;59606;52.138;5.424;2022-10-16T08:26:48;4.53;;;1.37;;
71771;SDS011;59606;52.138;5.424;2022-10-16T08:29:14;6.05;;;1.38;;
71771;SDS011;59606;52.138;5.424;2022-10-16T08:31:41;4.85;;;1.20;;
71771;SDS011;59606;52.138;5.424;2022-10-16T08:34:07;5.15;;;1.63;;
71771;SDS011;59606;52.138;5.424;2022-10-16T08:36:34;4.90;;;1.63;;
71771;SDS011;59606;52.138;5.424;2022-10-16T08:39:00;7.23;;;1.57;;
71771;SDS011;59606;52.138;5.424;2022-10-16T08:41:31;4.95;;;1.55;;
71771;SDS011;59606;52.138;5.424;2022-10-16T08:49:43;2.83;;;1.52;;
71771;SDS011;59606;52.138;5.424;2022-10-16T08:52:34;5.03;;;1.57;;
71771;SDS011;59606;52.138;5.424;2022-10-16T08:55:04;6.88;;;1.80;;
71771;SDS011;59606;52.138;5.424;2022-10-16T08:57:31;4.28;;;1.30;;
71771;SDS011;59606;52.138;5.424;2022-10-16T09:00:00;6.80;;;1.63;;
71771;SDS011;59606;52.138;5.424;2022-10-16T09:02:45;5.57;;;1.60;;
71771;SDS011;59606;52.138;5.424;2022-10-16T09:05:23;7.30;;;1.73;;
71771;SDS011;59606;52.138;5.424;2022-10-16T09:16:34;6.30;;;1.30;;
71771;SDS011;59606;52.138;5.424;2022-10-16T09:21:58;8.77;;;1.27;;
71771;SDS011;59606;52.138;5.424;2022-10-16T09:24:29;8.90;;;1.60;;
71771;SDS011;59606;52.138;5.424;2022-10-16T09:26:56;6.05;;;1.20;;
71771;SDS011;59606;52.138;5.424;2022-10-16T09:29:22;6.68;;;1.42;;
71771;SDS011;59606;52.138;5.424;2022-10-16T09:31:52;6.40;;;1.10;;
71771;SDS011;59606;52.138;5.424;2022-10-16T09:34:31;9.75;;;1.40;;
71771;SDS011;59606;52.138;5.424;2022-10-16T09:37:01;8.90;;;1.33;;
71771;SDS011;59606;52.138;5.424;2022-10-16T09:39:43;5.80;;;1.10;;
71771;SDS011;59606;52.138;5.424;2022-10-16T09:42:17;7.20;;;1.10;;
71771;SDS011;59606;52.138;5.424;2022-10-16T09:44:47;5.90;;;1.20;;
71771;SDS011;59606;52.138;5.424;2022-10-16T09:47:17;10.77;;;1.35;;
71771;SDS011;59606;52.138;5.424;2022-10-16T09:50:00;9.18;;;1.42;;
71771;SDS011;59606;52.138;5.424;2022-10-16T09:52:32;7.22;;;1.25;;
71771;SDS011;59606;52.138;5.424;2022-10-16T09:55:01;12.25;;;1.00;;
71771;SDS011;59606;52.138;5.424;2022-10-16T09:58:00;6.67;;;1.20;;
71771;SDS011;59606;52.138;5.424;2022-10-16T10:00:25;7.03;;;1.00;;
71771;SDS011;59606;52.138;5.424;2022-10-16T10:02:52;6.03;;;1.00;;
71771;SDS011;59606;52.138;5.424;2022-10-16T10:05:28;7.50;;;1.10;;
71771;SDS011;59606;52.138;5.424;2022-10-16T10:07:59;6.75;;;1.25;;
71771;SDS011;59606;52.138;5.424;2022-10-16T10:10:32;10.53;;;1.20;;
71771;SDS011;59606;52.138;5.424;2022-10-16T10:13:03;5.80;;;0.90;;
71771;SDS011;59606;52.138;5.424;2022-10-16T10:15:33;7.60;;;1.33;;
71771;SDS011;59606;52.138;5.424;2022-10-16T10:18:02;9.55;;;1.27;;
71771;SDS011;59606;52.138;5.424;2022-10-16T10:20:42;7.45;;;0.95;;
71771;SDS011;59606;52.138;5.424;2022-10-16T10:23:21;9.20;;;1.23;;
71771;SDS011;59606;52.138;5.424;2022-10-16T10:25:52;9.77;;;1.73;;
71771;SDS011;59606;52.138;5.424;2022-10-16T10:33:54;9.35;;;1.35;;
71771;SDS011;59606;52.138;5.424;2022-10-16T10:36:40;8.47;;;1.20;;
71771;SDS011;59606;52.138;5.424;2022-10-16T10:44:51;6.20;;;0.98;;
71771;SDS011;59606;52.138;5.424;2022-10-16T10:50:26;8.33;;;1.70;;
71771;SDS011;59606;52.138;5.424;2022-10-16T10:58:50;4.35;;;1.15;;
71771;SDS011;59606;52.138;5.424;2022-10-16T11:01:56;5.53;;;1.65;;
71771;SDS011;59606;52.138;5.424;2022-10-16T11:04:41;8.23;;;1.03;;
71771;SDS011;59606;52.138;5.424;2022-10-16T11:10:18;8.57;;;1.20;;
71771;SDS011;59606;52.138;5.424;2022-10-16T11:12:57;9.80;;;1.00;;
71771;SDS011;59606;52.138;5.424;2022-10-16T11:15:31;9.30;;;1.02;;
71771;SDS011;59606;52.138;5.424;2022-10-16T11:18:08;8.53;;;1.30;;
71771;SDS011;59606;52.138;5.424;2022-10-16T11:20:53;10.60;;;2.05;;
71771;SDS011;59606;52.138;5.424;2022-10-16T11:23:23;7.55;;;1.10;;
71771;SDS011;59606;52.138;5.424;2022-10-16T11:25:56;8.40;;;1.10;;
71771;SDS011;59606;52.138;5.424;2022-10-16T11:28:28;6.45;;;1.73;;
71771;SDS011;59606;52.138;5.424;2022-10-16T11:31:22;7.57;;;1.10;;
71771;SDS011;59606;52.138;5.424;2022-10-16T11:34:05;10.10;;;1.17;;
71771;SDS011;59606;52.138;5.424;2022-10-16T11:36:46;8.68;;;1.48;;
71771;SDS011;59606;52.138;5.424;2022-10-16T11:39:21;7.20;;;1.42;;
71771;SDS011;59606;52.138;5.424;2022-10-16T11:42:10;14.10;;;1.67;;
71771;SDS011;59606;52.138;5.424;2022-10-16T11:44:50;6.50;;;1.10;;
71771;SDS011;59606;52.138;5.424;2022-10-16T11:53:21;7.13;;;1.52;;
71771;SDS011;59606;52.138;5.424;2022-10-16T11:55:49;9.80;;;1.38;;
71771;SDS011;59606;52.138;5.424;2022-10-16T11:58:32;8.43;;;0.93;;
71771;SDS011;59606;52.138;5.424;2022-10-16T12:04:05;5.85;;;1.42;;
71771;SDS011;59606;52.138;5.424;2022-10-16T12:06:41;9.65;;;1.13;;
71771;SDS011;59606;52.138;5.424;2022-10-16T12:09:24;5.28;;;1.23;;
71771;SDS011;59606;52.138;5.424;2022-10-16T12:11:53;9.20;;;0.93;;
71771;SDS011;59606;52.138;5.424;2022-10-16T12:14:35;5.28;;;0.90;;
71771;SDS011;59606;52.138;5.424;2022-10-16T12:17:25;8.95;;;1.02;;
71771;SDS011;59606;52.138;5.424;2022-10-16T12:20:21;8.13;;;1.35;;
71771;SDS011;59606;52.138;5.424;2022-10-16T12:25:25;4.40;;;0.80;;
71771;SDS011;59606;52.138;5.424;2022-10-16T12:28:00;11.60;;;1.52;;
71771;SDS011;59606;52.138;5.424;2022-10-16T12:30:31;6.68;;;1.30;;
71771;SDS011;59606;52.138;5.424;2022-10-16T12:33:02;5.00;;;0.90;;
71771;SDS011;59606;52.138;5.424;2022-10-16T12:35:35;7.78;;;1.05;;
71771;SDS011;59606;52.138;5.424;2022-10-16T12:40:43;7.85;;;2.05;;
71771;SDS011;59606;52.138;5.424;2022-10-16T12:43:13;8.32;;;1.20;;
71771;SDS011;59606;52.138;5.424;2022-10-16T12:46:02;5.10;;;1.35;;
71771;SDS011;59606;52.138;5.424;2022-10-16T12:48:52;6.07;;;0.88;;
71771;SDS011;59606;52.138;5.424;2022-10-16T12:51:35;11.77;;;1.10;;
71771;SDS011;59606;52.138;5.424;2022-10-16T13:00:12;5.70;;;0.82;;
71771;SDS011;59606;52.138;5.424;2022-10-16T13:05:58;5.00;;;0.80;;
71771;SDS011;59606;52.138;5.424;2022-10-16T13:11:08;8.32;;;0.90;;
71771;SDS011;59606;52.138;5.424;2022-10-16T13:16:50;6.43;;;1.27;;
71771;SDS011;59606;52.138;5.424;2022-10-16T13:22:33;7.72;;;0.98;;
71771;SDS011;59606;52.138;5.424;2022-10-16T13:25:26;9.30;;;1.10;;
71771;SDS011;59606;52.138;5.424;2022-10-16T13:27:59;8.30;;;1.15;;
71771;SDS011;59606;52.138;5.424;2022-10-16T13:30:29;5.00;;;1.08;;
71771;SDS011;59606;52.138;5.424;2022-10-16T13:33:01;8.33;;;1.20;;
71771;SDS011;59606;52.138;5.424;2022-10-16T13:35:53;10.90;;;1.35;;
71771;SDS011;59606;52.138;5.424;2022-10-16T13:38:22;6.07;;;1.00;;
71771;SDS011;59606;52.138;5.424;2022-10-16T13:43:19;5.65;;;0.80;;
71771;SDS011;59606;52.138;5.424;2022-10-16T13:45:54;6.27;;;1.13;;
71771;SDS011;59606;52.138;5.424;2022-10-16T13:48:23;6.30;;;0.88;;
71771;SDS011;59606;52.138;5.424;2022-10-16T13:50:59;16.00;;;2.28;;
71771;SDS011;59606;52.138;5.424;2022-10-16T13:53:31;9.27;;;1.10;;
71771;SDS011;59606;52.138;5.424;2022-10-16T13:56:00;6.60;;;0.75;;
71771;SDS011;59606;52.138;5.424;2022-10-16T13:58:29;7.50;;;1.00;;
71771;SDS011;59606;52.138;5.424;2022-10-16T14:00:59;8.05;;;0.93;;
71771;SDS011;59606;52.138;5.424;2022-10-16T14:03:28;6.68;;;0.85;;
71771;SDS011;59606;52.138;5.424;2022-10-16T14:05:59;8.50;;;0.90;;
71771;SDS011;59606;52.138;5.424;2022-10-16T14:08:29;6.30;;;0.65;;
71771;SDS011;59606;52.138;5.424;2022-10-16T14:10:58;12.63;;;1.00;;
71771;SDS011;59606;52.138;5.424;2022-10-16T14:16:00;7.90;;;1.33;;
71771;SDS011;59606;52.138;5.424;2022-10-16T14:18:32;8.10;;;0.95;;
71771;SDS011;59606;52.138;5.424;2022-10-16T14:21:04;7.63;;;1.13;;
71771;SDS011;59606;52.138;5.424;2022-10-16T14:23:39;5.93;;;0.80;;
71771;SDS011;59606;52.138;5.424;2022-10-16T14:28:36;9.90;;;1.05;;
71771;SDS011;59606;52.138;5.424;2022-10-16T14:31:19;7.47;;;1.05;;
71771;SDS011;59606;52.138;5.424;2022-10-16T14:33:51;9.88;;;1.10;;
71771;SDS011;59606;52.138;5.424;2022-10-16T14:36:18;5.43;;;1.30;;
71771;SDS011;59606;52.138;5.424;2022-10-16T14:39:06;6.50;;;0.77;;
71771;SDS011;59606;52.138;5.424;2022-10-16T14:41:45;11.85;;;1.42;;
71771;SDS011;59606;52.138;5.424;2022-10-16T14:44:14;9.18;;;1.02;;
71771;SDS011;59606;52.138;5.424;2022-10-16T14:46:43;8.13;;;0.88;;
71771;SDS011;59606;52.138;5.424;2022-10-16T14:49:26;7.97;;;0.90;;
71771;SDS011;59606;52.138;5.424;2022-10-16T14:52:17;7.93;;;1.20;;
71771;SDS011;59606;52.138;5.424;2022-10-16T14:54:46;6.45;;;1.08;;
71771;SDS011;59606;52.138;5.424;2022-10-16T14:57:18;7.85;;;1.27;;
71771;SDS011;59606;52.138;5.424;2022-10-16T14:59:46;7.38;;;1.55;;
71771;SDS011;59606;52.138;5.424;2022-10-16T15:02:16;8.03;;;1.43;;
71771;SDS011;59606;52.138;5.424;2022-10-16T15:04:51;6.75;;;1.00;;
71771;SDS011;59606;52.138;5.424;2022-10-16T15:07:18;4.20;;;0.93;;
71771;SDS011;59606;52.138;5.424;2022-10-16T15:09:44;6.70;;;1.50;;
71771;SDS011;59606;52.138;5.424;2022-10-16T15:12:15;10.27;;;0.98;;
71771;SDS011;59606;52.138;5.424;2022-10-16T15:14:42;7.37;;;1.70;;
71771;SDS011;59606;52.138;5.424;2022-10-16T15:17:10;3.40;;;0.80;;
71771;SDS011;59606;52.138;5.424;2022-10-16T15:19:37;7.68;;;1.42;;
71771;SDS011;59606;52.138;5.424;2022-10-16T15:22:04;7.47;;;0.88;;
71771;SDS011;59606;52.138;5.424;2022-10-16T15:24:30;4.07;;;0.85;;
71771;SDS011;59606;52.138;5.424;2022-10-16T15:26:57;4.90;;;1.00;;
71771;SDS011;59606;52.138;5.424;2022-10-16T15:29:23;5.88;;;1.55;;
71771;SDS011;59606;52.138;5.424;2022-10-16T15:31:49;11.25;;;0.80;;
71771;SDS011;59606;52.138;5.424;2022-10-16T15:34:16;9.27;;;0.80;;
71771;SDS011;59606;52.138;5.424;2022-10-16T15:36:45;6.43;;;0.95;;
71771;SDS011;59606;52.138;5.424;2022-10-16T15:39:12;5.53;;;0.80;;
71771;SDS011;59606;52.138;5.424;2022-10-16T15:41:40;6.68;;;1.45;;
71771;SDS011;59606;52.138;5.424;2022-10-16T15:44:08;13.15;;;1.58;;
71771;SDS011;59606;52.138;5.424;2022-10-16T15:46:34;12.73;;;2.78;;
71771;SDS011;59606;52.138;5.424;2022-10-16T15:49:02;7.75;;;2.15;;
71771;SDS011;59606;52.138;5.424;2022-10-16T15:51:29;4.80;;;1.30;;
71771;SDS011;59606;52.138;5.424;2022-10-16T15:53:56;6.35;;;2.22;;
71771;SDS011;59606;52.138;5.424;2022-10-16T15:56:23;7.25;;;1.40;;
71771;SDS011;59606;52.138;5.424;2022-10-16T15:58:51;6.95;;;1.50;;
71771;SDS011;59606;52.138;5.424;2022-10-16T16:01:20;6.45;;;1.30;;
71771;SDS011;59606;52.138;5.424;2022-10-16T16:03:47;6.90;;;1.30;;
71771;SDS011;59606;52.138;5.424;2022-10-16T16:06:18;10.13;;;2.38;;
71771;SDS011;59606;52.138;5.424;2022-10-16T16:08:44;18.48;;;5.43;;
71771;SDS011;59606;52.138;5.424;2022-10-16T16:11:13;8.88;;;2.97;;
71771;SDS011;59606;52.138;5.424;2022-10-16T16:13:41;11.98;;;4.00;;
71771;SDS011;59606;52.138;5.424;2022-10-16T16:16:08;12.70;;;3.80;;
71771;SDS011;59606;52.138;5.424;2022-10-16T16:18:38;12.88;;;4.07;;
71771;SDS011;59606;52.138;5.424;2022-10-16T16:21:05;11.43;;;4.03;;
71771;SDS011;59606;52.138;5.424;2022-10-16T16:23:31;14.10;;;4.63;;
71771;SDS011;59606;52.138;5.424;2022-10-16T16:26:04;16.42;;;4.13;;
71771;SDS011;59606;52.138;5.424;2022-10-16T16:28:33;10.33;;;3.60;;
71771;SDS011;59606;52.138;5.424;2022-10-16T16:30:59;10.38;;;4.03;;
71771;SDS011;59606;52.138;5.424;2022-10-16T16:33:26;12.50;;;3.67;;
71771;SDS011;59606;52.138;5.424;2022-10-16T16:35:56;19.88;;;7.38;;
71771;SDS011;59606;52.138;5.424;2022-10-16T16:38:24;16.00;;;5.53;;